Time;durP1;ratioP1;P1;durP2;ratioP2;P2;SDS_P1;SDS_P2;PMS_P1;PMS_P2;Temp;Humidity;BMP_temperature;BMP_pressure;BME280_temperature;BME280_humidity;BME280_pressure;Samples;Min_cycle;Max_cycle;Signal;HPM_P1;HPM_P2
2021/05/07 00:00:36;;;;;;;9.23;3.30;;;;;;;11.87;62.96;99112.94;5019397;27;99541;-82
2021/05/07 00:03:01;;;;;;;5.18;2.90;;;;;;;11.87;63.07;99098.94;5016113;27;97224;-82
2021/05/07 00:05:27;;;;;;;5.15;3.63;;;;;;;11.85;62.97;99104.28;5002662;27;97266;-82
2021/05/07 00:07:53;;;;;;;9.38;3.33;;;;;;;11.82;63.20;99101.81;5035958;27;99113;-82
2021/05/07 00:10:18;;;;;;;8.30;3.88;;;;;;;11.83;63.27;99110.53;5025535;27;101969;-81
2021/05/07 00:12:44;;;;;;;6.63;3.63;;;;;;;11.80;62.97;99111.56;5038701;27;97381;-82
2021/05/07 00:15:10;;;;;;;9.23;3.35;;;;;;;11.81;63.59;99104.50;5030321;27;97067;-81
2021/05/07 00:17:36;;;;;;;6.05;3.08;;;;;;;11.79;62.99;99094.94;5015221;27;101393;-82
2021/05/07 00:20:03;;;;;;;6.85;3.40;;;;;;;11.80;62.78;99095.78;5002822;27;101224;-82
2021/05/07 00:22:29;;;;;;;5.32;2.60;;;;;;;11.73;62.77;99084.78;5032251;27;96760;-80
2021/05/07 00:24:54;;;;;;;5.97;2.67;;;;;;;11.73;62.93;99089.19;5009380;27;96942;-81
2021/05/07 00:27:20;;;;;;;4.63;2.70;;;;;;;11.70;62.86;99086.75;5019231;27;101733;-81
2021/05/07 00:29:46;;;;;;;6.40;2.53;;;;;;;11.68;62.70;99089.47;5018452;27;101080;-80
2021/05/07 00:32:13;;;;;;;7.68;2.60;;;;;;;11.62;63.00;99079.31;5018474;27;96815;-80
2021/05/07 00:34:38;;;;;;;4.40;2.63;;;;;;;11.58;63.71;99080.44;5029358;27;96828;-80
2021/05/07 00:37:04;;;;;;;4.93;2.55;;;;;;;11.56;63.80;99079.66;5005375;27;101426;-81
2021/05/07 00:39:30;;;;;;;6.03;2.63;;;;;;;11.55;64.13;99083.25;5024647;27;101173;-80
2021/05/07 00:42:08;;;;;;;5.72;2.47;;;;;;;11.57;63.32;99073.47;5027167;27;96838;-81
2021/05/07 00:44:35;;;;;;;4.03;2.60;;;;;;;11.59;63.21;99079.47;5023656;27;96794;-80
2021/05/07 00:47:05;;;;;;;4.13;2.58;;;;;;;11.55;63.58;99078.81;5039173;27;101360;-81
2021/05/07 00:49:36;;;;;;;6.05;2.83;;;;;;;11.57;63.67;99070.84;5029720;27;101185;-80
2021/05/07 00:52:05;;;;;;;6.55;3.08;;;;;;;11.54;63.81;99066.59;5039792;27;97092;-81
2021/05/07 00:54:35;;;;;;;5.30;2.90;;;;;;;11.50;63.78;99065.09;5050950;27;97480;-80
2021/05/07 00:57:02;;;;;;;5.97;2.60;;;;;;;11.52;63.93;99054.50;5058859;27;100730;-81
2021/05/07 00:59:28;;;;;;;5.65;3.13;;;;;;;11.51;64.04;99053.63;5059181;27;99571;-80
2021/05/07 01:01:54;;;;;;;3.65;2.50;;;;;;;11.44;63.75;99048.84;5042351;27;97104;-81
2021/05/07 01:04:20;;;;;;;6.35;2.40;;;;;;;11.41;64.10;99044.59;5059245;27;97248;-81
2021/05/07 01:06:46;;;;;;;4.80;3.08;;;;;;;11.41;63.90;99047.22;5075847;27;98034;-81
2021/05/07 01:09:11;;;;;;;5.32;2.72;;;;;;;11.40;63.97;99040.25;5045889;27;101240;-81
2021/05/07 01:11:39;;;;;;;5.25;2.63;;;;;;;11.37;63.48;99037.81;5051704;27;97033;-81
2021/05/07 01:14:05;;;;;;;4.20;2.60;;;;;;;11.36;64.00;99036.13;5055925;27;97466;-81
2021/05/07 01:16:32;;;;;;;3.65;2.47;;;;;;;11.33;63.76;99024.00;5062886;27;97930;-80
2021/05/07 01:19:00;;;;;;;4.95;2.53;;;;;;;11.30;63.94;99026.81;5038893;27;101083;-80
2021/05/07 01:21:27;;;;;;;4.88;2.30;;;;;;;11.29;64.09;99019.03;5026309;27;97396;-81
2021/05/07 01:23:53;;;;;;;4.88;2.75;;;;;;;11.23;63.79;99015.00;5038141;27;96991;-81
2021/05/07 01:26:19;;;;;;;3.80;2.08;;;;;;;11.17;64.62;99019.72;5038638;27;101717;-81
2021/05/07 01:28:45;;;;;;;3.67;2.10;;;;;;;11.19;63.96;99016.06;5031810;27;101355;-81
2021/05/07 01:31:11;;;;;;;3.83;2.00;;;;;;;11.21;63.94;99010.75;5039116;27;96772;-81
2021/05/07 01:33:39;;;;;;;5.13;2.60;;;;;;;11.17;64.11;99004.84;5037821;27;97133;-81
2021/05/07 01:36:05;;;;;;;5.60;2.10;;;;;;;11.16;63.92;98997.03;5038397;27;101139;-81
2021/05/07 01:38:31;;;;;;;3.45;2.40;;;;;;;11.16;63.95;99000.50;5038250;27;100172;-80
2021/05/07 01:40:57;;;;;;;4.47;2.50;;;;;;;11.14;64.22;98991.88;5046361;27;96794;-81
2021/05/07 01:43:31;;;;;;;4.22;2.28;;;;;;;11.09;64.01;98984.25;5038196;27;99041;-80
2021/05/07 01:46:00;;;;;;;3.72;2.28;;;;;;;11.12;64.27;98982.41;5038124;27;101532;-81
2021/05/07 01:48:25;;;;;;;4.25;2.50;;;;;;;11.12;64.22;98983.22;5038004;27;101029;-81
2021/05/07 01:50:51;;;;;;;2.97;2.13;;;;;;;11.08;63.64;98982.56;5037552;27;96685;-80
2021/05/07 01:53:17;;;;;;;4.25;2.45;;;;;;;11.03;64.11;98979.34;5038401;27;96804;-82
2021/05/07 01:55:46;;;;;;;4.10;2.10;;;;;;;10.99;64.65;98974.34;5020544;27;101230;-81
2021/05/07 01:58:15;;;;;;;5.03;2.40;;;;;;;10.95;64.07;98981.56;5022064;27;100750;-81
2021/05/07 02:00:44;;;;;;;3.15;2.45;;;;;;;10.93;64.56;98978.16;5020699;27;97082;-80
2021/05/07 02:03:11;;;;;;;4.90;2.58;;;;;;;10.92;64.84;98967.78;5021971;27;97282;-81
2021/05/07 02:05:45;;;;;;;4.47;3.05;;;;;;;10.91;64.50;98979.19;5022191;27;100577;-81
2021/05/07 02:08:11;;;;;;;6.00;2.72;;;;;;;10.95;64.93;98971.06;5037889;27;101552;-81
2021/05/07 02:10:37;;;;;;;4.28;2.70;;;;;;;10.92;64.79;98975.66;5032034;27;96678;-81
2021/05/07 02:13:11;;;;;;;4.75;2.92;;;;;;;10.86;64.69;98974.22;5022900;27;96989;-81
2021/05/07 02:15:39;;;;;;;3.67;2.63;;;;;;;10.88;64.76;98985.47;5037198;27;100961;-81
2021/05/07 02:18:07;;;;;;;3.65;2.80;;;;;;;10.89;64.73;98971.41;5037821;27;101638;-81
2021/05/07 02:20:34;;;;;;;4.93;3.28;;;;;;;10.94;64.84;98981.63;5051550;27;96674;-81
2021/05/07 02:22:59;;;;;;;5.95;2.95;;;;;;;10.92;64.88;98978.28;5038063;27;96984;-81
2021/05/07 02:25:27;;;;;;;3.60;2.78;;;;;;;10.92;64.26;98984.38;5051280;27;98199;-81
2021/05/07 02:27:55;;;;;;;5.50;3.22;;;;;;;10.91;65.08;98974.81;5041284;27;100947;-81
2021/05/07 02:30:25;;;;;;;7.00;3.03;;;;;;;10.87;64.63;98984.63;5027194;27;97087;-81
2021/05/07 02:32:51;;;;;;;6.38;3.15;;;;;;;10.87;64.70;98970.66;5020346;27;97377;-81
2021/05/07 02:35:17;;;;;;;4.38;3.08;;;;;;;10.91;65.19;98971.31;5030771;27;101013;-81
2021/05/07 02:37:43;;;;;;;5.47;3.65;;;;;;;10.86;64.97;98966.34;5023684;27;101460;-81
2021/05/07 02:40:11;;;;;;;6.45;3.30;;;;;;;10.87;65.04;98966.25;5053369;27;97090;-81
2021/05/07 02:42:37;;;;;;;5.68;3.08;;;;;;;10.86;65.38;98969.81;5036085;27;96912;-81
2021/05/07 02:45:08;;;;;;;4.32;2.40;;;;;;;10.90;65.01;98975.72;5037302;27;97950;-81
2021/05/07 02:47:35;;;;;;;6.80;2.30;;;;;;;10.87;65.62;98968.03;5019856;27;100978;-81
2021/05/07 02:50:03;;;;;;;2.75;1.98;;;;;;;10.86;65.35;98961.94;5040339;27;97242;-81
2021/05/07 02:52:29;;;;;;;4.00;2.10;;;;;;;10.89;65.07;98960.91;5058234;27;96831;-81
2021/05/07 02:54:54;;;;;;;2.95;1.70;;;;;;;10.86;65.21;98956.69;5040321;27;98474;-81
2021/05/07 02:57:21;;;;;;;2.42;1.67;;;;;;;10.87;65.03;98962.78;5037658;27;101025;-81
2021/05/07 02:59:46;;;;;;;3.17;2.20;;;;;;;10.85;65.26;98956.78;5053855;27;97166;-81
2021/05/07 03:02:12;;;;;;;5.60;2.08;;;;;;;10.86;65.21;98963.72;5036997;27;97244;-81
2021/05/07 03:04:38;;;;;;;2.95;1.73;;;;;;;10.78;65.71;98960.66;5021447;27;101448;-81
2021/05/07 03:07:03;;;;;;;2.75;1.90;;;;;;;10.79;65.12;98967.59;5036713;27;100950;-81
2021/05/07 03:09:29;;;;;;;4.05;2.30;;;;;;;10.81;65.10;98963.97;5070235;27;96819;-81
2021/05/07 03:11:56;;;;;;;4.07;2.00;;;;;;;10.75;65.12;98966.09;5059012;27;97241;-81
2021/05/07 03:14:21;;;;;;;3.47;1.90;;;;;;;10.73;65.17;98966.16;5060516;27;101314;-81
2021/05/07 03:16:47;;;;;;;3.83;2.40;;;;;;;10.73;65.35;98967.94;5060676;27;101103;-81
2021/05/07 03:19:13;;;;;;;3.70;2.40;;;;;;;10.72;64.89;98971.53;5078223;27;96753;-81
2021/05/07 03:21:38;;;;;;;3.08;1.98;;;;;;;10.73;65.46;98978.44;5059856;27;97483;-80
2021/05/07 03:24:05;;;;;;;3.83;2.50;;;;;;;10.72;64.93;98977.59;5060799;27;101346;-82
2021/05/07 03:26:31;;;;;;;3.47;2.05;;;;;;;10.70;65.09;98978.63;5040638;27;97869;-81
2021/05/07 03:28:56;;;;;;;2.60;1.60;;;;;;;10.69;64.89;98980.41;5023122;27;96734;-81
2021/05/07 03:31:22;;;;;;;5.28;1.90;;;;;;;10.69;65.21;98975.16;5040748;27;96919;-81
2021/05/07 03:33:48;;;;;;;2.63;1.50;;;;;;;10.68;64.93;98978.72;5039450;27;98027;-81
2021/05/07 03:36:14;;;;;;;4.47;2.10;;;;;;;10.68;65.23;98981.34;5040565;27;101003;-81
2021/05/07 03:38:40;;;;;;;4.13;1.92;;;;;;;10.65;65.30;98976.28;5034747;27;96774;-81
2021/05/07 03:41:05;;;;;;;3.88;1.90;;;;;;;10.68;64.67;98983.97;5040803;27;97036;-81
2021/05/07 03:43:31;;;;;;;3.05;1.92;;;;;;;10.67;65.28;98992.75;5040087;27;97906;-81
2021/05/07 03:45:57;;;;;;;4.28;2.03;;;;;;;10.62;64.84;98984.31;5039356;27;101150;-81
2021/05/07 03:48:23;;;;;;;3.78;2.13;;;;;;;10.62;65.02;98984.31;5040197;27;96593;-81
2021/05/07 03:50:50;;;;;;;4.18;2.00;;;;;;;10.62;64.88;98997.44;5022961;27;97060;-81
2021/05/07 03:53:17;;;;;;;4.47;1.80;;;;;;;10.66;64.63;98996.31;5041336;27;98624;-81
2021/05/07 03:55:43;;;;;;;2.15;1.70;;;;;;;10.64;65.05;98992.94;5051285;27;101423;-81
2021/05/07 03:58:09;;;;;;;2.28;1.45;;;;;;;10.62;64.63;98998.28;5040428;27;97332;-81
2021/05/07 04:00:35;;;;;;;2.72;1.80;;;;;;;10.62;64.80;98994.81;5040266;27;97309;-79
2021/05/07 04:03:01;;;;;;;3.10;1.70;;;;;;;10.63;64.64;98996.50;5039379;27;101616;-81
2021/05/07 04:05:26;;;;;;;2.78;1.60;;;;;;;10.63;64.31;98997.34;5039894;27;100748;-81
2021/05/07 04:10:29;;;;;;;3.63;1.70;;;;;;;10.64;64.92;99000.81;5061664;27;96770;-81
2021/05/07 04:15:20;;;;;;;4.07;2.10;;;;;;;10.68;64.69;99010.22;5067299;27;97999;-81
2021/05/07 04:17:46;;;;;;;4.72;2.15;;;;;;;10.71;64.71;99001.34;5042736;27;97015;-80
2021/05/07 04:20:12;;;;;;;3.17;2.13;;;;;;;10.74;64.24;99009.03;5040480;27;96860;-81
2021/05/07 04:22:38;;;;;;;5.15;2.47;;;;;;;10.75;64.83;99011.56;5034955;27;100834;-80
2021/05/07 04:25:08;;;;;;;6.55;2.40;;;;;;;10.75;65.07;99016.81;5039256;27;101156;-81
2021/05/07 04:27:34;;;;;;;6.20;2.65;;;;;;;10.73;64.72;99020.44;5040061;27;97190;-81
2021/05/07 04:30:00;;;;;;;4.60;2.55;;;;;;;10.74;64.98;99015.13;5033637;27;96857;-81
2021/05/07 04:32:26;;;;;;;3.47;2.30;;;;;;;10.72;64.67;99016.13;5042365;27;100440;-81
2021/05/07 04:34:51;;;;;;;4.35;2.30;;;;;;;10.74;64.65;99023.00;5039089;27;101428;-82
2021/05/07 04:37:17;;;;;;;4.40;2.25;;;;;;;10.75;64.61;99014.19;5022365;27;96662;-81
2021/05/07 04:39:42;;;;;;;2.15;1.80;;;;;;;10.84;64.55;99031.19;5039551;27;96849;-81
2021/05/07 04:42:08;;;;;;;3.50;2.00;;;;;;;10.86;64.62;99027.56;5042861;27;98397;-82
2021/05/07 04:44:34;;;;;;;3.15;1.88;;;;;;;10.86;64.35;99030.19;5049572;27;98277;-81
2021/05/07 04:46:59;;;;;;;2.50;1.70;;;;;;;10.87;64.53;99031.88;5035055;27;96839;-81
2021/05/07 04:49:28;;;;;;;2.20;1.75;;;;;;;10.86;64.58;99038.06;5066875;27;97324;-81
2021/05/07 04:51:54;;;;;;;4.57;2.03;;;;;;;10.86;64.78;99030.19;5055202;27;101466;-81
2021/05/07 04:54:20;;;;;;;3.78;2.70;;;;;;;10.87;64.70;99038.91;5055256;27;101416;-81
2021/05/07 04:56:46;;;;;;;5.38;2.55;;;;;;;10.88;64.66;99048.50;5024994;27;97106;-81
2021/05/07 04:59:11;;;;;;;3.95;2.78;;;;;;;10.87;65.18;99039.75;5022688;27;97172;-82
2021/05/07 05:01:37;;;;;;;3.88;2.60;;;;;;;10.85;65.19;99038.16;5038413;27;97951;-81
2021/05/07 05:04:03;;;;;;;6.70;3.35;;;;;;;10.87;65.68;99052.03;5037430;27;101611;-81
2021/05/07 05:06:28;;;;;;;5.57;3.28;;;;;;;10.84;65.86;99054.81;5039398;27;97533;-81
2021/05/07 05:08:54;;;;;;;5.90;3.83;;;;;;;10.78;66.23;99053.38;5038780;27;97091;-81
2021/05/07 05:11:20;;;;;;;4.57;3.33;;;;;;;10.81;65.76;99057.63;5062598;27;98136;-86
2021/05/07 05:13:45;;;;;;;7.50;4.22;;;;;;;10.85;65.63;99061.78;5055363;27;100964;-86
2021/05/07 05:16:11;;;;;;;8.35;4.32;;;;;;;10.88;65.52;99061.63;5087898;27;97089;-85
2021/05/07 05:18:38;;;;;;;6.72;3.90;;;;;;;10.93;65.80;99058.72;5048016;27;96667;-84
2021/05/07 05:21:08;;;;;;;6.47;4.47;;;;;;;10.97;65.61;99055.00;5046081;27;97107;-86
2021/05/07 05:23:34;;;;;;;5.60;3.75;;;;;;;11.04;65.51;99059.81;5044278;27;99769;-87
2021/05/07 05:26:00;;;;;;;8.75;3.92;;;;;;;11.09;65.17;99062.19;5052979;27;97115;-86
2021/05/07 05:28:26;;;;;;;5.65;4.22;;;;;;;11.07;65.61;99062.28;5047274;27;97380;-86
2021/05/07 05:30:53;;;;;;;4.40;3.28;;;;;;;11.14;65.26;99070.69;5024723;27;102768;-86
2021/05/07 05:33:18;;;;;;;6.05;4.22;;;;;;;11.18;65.13;99071.34;5051598;27;99906;-85
2021/05/07 05:35:45;;;;;;;7.15;4.40;;;;;;;11.21;65.39;99076.41;5025317;27;98255;-85
2021/05/07 05:38:13;;;;;;;7.03;3.72;;;;;;;11.20;65.08;99078.22;5062836;27;96759;-86
2021/05/07 05:40:39;;;;;;;7.35;4.07;;;;;;;11.22;65.14;99088.59;5037514;27;101249;-86
2021/05/07 05:43:04;;;;;;;4.68;3.47;;;;;;;11.22;65.19;99089.44;5052783;27;100990;-85
2021/05/07 05:45:30;;;;;;;6.35;3.90;;;;;;;11.19;65.20;99094.03;5038320;27;97388;-85
2021/05/07 05:48:13;;;;;;;5.18;3.67;;;;;;;11.21;64.83;99097.44;5036676;27;96886;-86
2021/05/07 05:50:41;;;;;;;4.38;3.15;;;;;;;11.13;64.83;99092.59;5036115;27;101435;-85
2021/05/07 05:53:07;;;;;;;4.32;3.38;;;;;;;11.15;64.48;99092.53;5055320;27;97900;-86
2021/05/07 05:55:33;;;;;;;6.97;3.58;;;;;;;11.17;64.63;99101.16;5049415;27;96707;-86
2021/05/07 05:57:59;;;;;;;3.88;2.90;;;;;;;11.12;64.31;99100.56;5050512;27;96845;-86
2021/05/07 06:00:25;;;;;;;4.93;3.20;;;;;;;11.09;64.49;99104.22;5049249;27;101184;-86
2021/05/07 06:02:50;;;;;;;4.10;3.17;;;;;;;11.12;64.58;99111.09;5057941;27;98213;-86
2021/05/07 06:05:16;;;;;;;5.45;3.15;;;;;;;11.09;64.30;99112.09;5053683;27;97201;-86
2021/05/07 06:07:42;;;;;;;6.65;3.50;;;;;;;11.08;64.63;99116.50;5043755;27;96833;-86
2021/05/07 06:10:12;;;;;;;7.10;3.70;;;;;;;11.08;65.21;99110.38;5053107;27;98377;-86
2021/05/07 06:12:39;;;;;;;6.82;4.10;;;;;;;11.14;64.61;99117.94;5041934;27;97421;-86
2021/05/07 06:15:05;;;;;;;6.22;4.10;;;;;;;11.20;64.82;99114.97;5027614;27;97256;-85
2021/05/07 06:17:31;;;;;;;5.75;3.75;;;;;;;11.24;64.63;99107.75;5073029;27;96955;-85
2021/05/07 06:19:57;;;;;;;5.20;3.83;;;;;;;11.24;64.63;99115.66;5043053;27;98125;-85
2021/05/07 06:22:26;;;;;;;5.93;3.95;;;;;;;11.25;64.47;99110.28;5071659;27;98013;-86
2021/05/07 06:24:51;;;;;;;7.95;4.35;;;;;;;11.25;64.46;99117.31;5024717;27;97901;-86
2021/05/07 06:27:17;;;;;;;8.77;4.20;;;;;;;11.23;64.72;99121.84;5050493;27;97058;-87
2021/05/07 06:29:42;;;;;;;5.32;3.97;;;;;;;11.23;64.80;99127.94;5036540;27;98441;-85
2021/05/07 06:32:08;;;;;;;6.00;4.38;;;;;;;11.28;64.63;99125.88;5036964;27;98548;-85
2021/05/07 06:34:33;;;;;;;5.45;4.13;;;;;;;11.31;64.79;99128.38;5024174;27;96896;-85
2021/05/07 06:36:59;;;;;;;6.93;4.00;;;;;;;11.29;64.92;99132.00;5039449;27;97004;-85
2021/05/07 06:39:29;;;;;;;6.05;4.07;;;;;;;11.36;64.53;99141.22;5054948;27;97459;-85
2021/05/07 06:41:57;;;;;;;5.70;3.72;;;;;;;11.35;64.24;99143.97;5054154;27;97473;-88
2021/05/07 06:44:23;;;;;;;4.53;3.47;;;;;;;11.35;64.05;99152.69;5022481;27;98029;-86
2021/05/07 06:46:49;;;;;;;5.55;3.90;;;;;;;11.42;64.04;99148.75;5038855;27;97005;-90
2021/05/07 06:49:14;;;;;;;7.82;3.97;;;;;;;11.43;64.01;99152.22;5028086;27;101601;-88
2021/05/07 06:51:40;;;;;;;7.00;3.85;;;;;;;11.44;63.83;99151.31;5053689;27;101336;-89
2021/05/07 06:54:06;;;;;;;4.55;3.42;;;;;;;11.36;64.37;99154.38;5053148;27;97106;-89
2021/05/07 06:56:32;;;;;;;5.28;3.80;;;;;;;11.37;64.35;99153.41;5044999;27;99151;-90
2021/05/07 06:58:57;;;;;;;5.25;4.00;;;;;;;11.45;64.28;99156.47;5043844;27;100876;-88
2021/05/07 07:01:23;;;;;;;4.70;3.65;;;;;;;11.45;64.11;99153.84;5071500;27;101674;-82
2021/05/07 07:03:49;;;;;;;5.00;3.30;;;;;;;11.39;64.33;99156.81;5051276;27;97428;-81
2021/05/07 07:06:15;;;;;;;5.65;3.47;;;;;;;11.34;64.07;99156.22;5049657;27;97384;-81
2021/05/07 07:08:40;;;;;;;4.45;3.22;;;;;;;11.44;63.76;99156.56;5041154;27;102073;-81
2021/05/07 07:11:06;;;;;;;5.32;3.40;;;;;;;11.57;63.40;99152.31;5068165;27;97658;-84
2021/05/07 07:13:31;;;;;;;4.90;3.15;;;;;;;11.73;63.39;99153.13;5063227;27;96743;-84
2021/05/07 07:15:57;;;;;;;5.15;3.20;;;;;;;11.91;62.91;99160.94;5030398;27;96913;-83
2021/05/07 07:18:23;;;;;;;4.63;3.10;;;;;;;12.06;62.68;99159.19;5034836;27;98485;-82
2021/05/07 07:20:49;;;;;;;6.32;3.15;;;;;;;12.21;62.28;99160.91;5034908;27;98833;-83
2021/05/07 07:23:15;;;;;;;4.60;2.85;;;;;;;12.34;62.07;99154.00;5029817;27;96833;-84
2021/05/07 07:25:41;;;;;;;5.60;2.70;;;;;;;12.36;61.38;99154.75;5048756;27;96788;-83
2021/05/07 07:28:07;;;;;;;4.53;2.65;;;;;;;12.40;60.78;99156.25;5034071;27;98095;-81
2021/05/07 07:30:33;;;;;;;4.00;2.80;;;;;;;12.40;60.70;99161.53;5049666;27;97844;-77
2021/05/07 07:32:59;;;;;;;4.15;2.50;;;;;;;12.23;60.78;99159.91;5025808;27;97711;-80
2021/05/07 07:35:24;;;;;;;4.65;3.00;;;;;;;12.08;60.67;99173.97;5072270;27;96976;-80
2021/05/07 07:37:50;;;;;;;3.63;2.70;;;;;;;11.97;61.42;99186.88;5043570;27;98490;-80
2021/05/07 07:40:16;;;;;;;7.30;3.85;;;;;;;11.85;61.45;99193.69;5053167;27;100950;-80
2021/05/07 07:42:41;;;;;;;4.47;3.13;;;;;;;11.76;61.65;99191.56;5020858;27;97028;-78
2021/05/07 07:45:10;;;;;;;5.35;3.78;;;;;;;11.72;61.53;99193.50;5060301;27;97345;-83
2021/05/07 07:47:36;;;;;;;5.15;3.42;;;;;;;11.63;62.20;99190.53;5028795;27;101817;-83
2021/05/07 07:50:04;;;;;;;7.03;3.58;;;;;;;11.68;61.51;99181.47;5029819;27;101570;-80
2021/05/07 07:52:32;;;;;;;7.15;3.92;;;;;;;11.86;61.81;99178.75;5057461;27;97834;-80
2021/05/07 07:54:59;;;;;;;7.05;3.80;;;;;;;12.46;60.88;99171.69;5033598;27;96821;-80
2021/05/07 07:57:25;;;;;;;5.00;4.28;;;;;;;13.04;59.61;99167.28;5045910;27;97270;-80
2021/05/07 07:59:51;;;;;;;8.23;4.30;;;;;;;13.34;59.61;99179.50;5082981;27;98322;-80
2021/05/07 08:02:17;;;;;;;7.40;4.78;;;;;;;13.67;58.80;99178.28;5048652;27;97258;-80
2021/05/07 08:04:43;;;;;;;4.65;3.42;;;;;;;13.99;58.26;99187.59;5051060;27;96957;-79
2021/05/07 08:07:09;;;;;;;6.60;3.55;;;;;;;14.33;57.16;99187.13;5079668;27;99981;-79
2021/05/07 08:09:36;;;;;;;7.60;3.85;;;;;;;13.84;58.33;99191.19;5046464;27;99111;-80
2021/05/07 08:12:02;;;;;;;6.22;3.95;;;;;;;13.46;58.90;99207.69;5032788;27;97324;-79
2021/05/07 08:14:27;;;;;;;8.65;3.28;;;;;;;13.13;58.08;99208.84;5047294;27;98498;-79
2021/05/07 08:16:53;;;;;;;4.85;3.17;;;;;;;13.00;58.32;99213.22;5047573;27;98027;-79
2021/05/07 08:19:18;;;;;;;7.95;3.08;;;;;;;12.99;57.84;99214.13;5061432;27;97847;-80
2021/05/07 08:21:44;;;;;;;7.43;3.40;;;;;;;13.27;57.07;99207.19;5053979;27;97150;-80
2021/05/07 08:24:10;;;;;;;7.93;3.08;;;;;;;13.57;56.55;99217.56;5051932;27;96891;-80
2021/05/07 08:26:36;;;;;;;6.93;3.30;;;;;;;13.77;56.64;99216.31;5038897;27;101131;-80
2021/05/07 08:29:03;;;;;;;4.22;2.70;;;;;;;13.47;56.67;99225.22;5056446;27;99637;-80
2021/05/07 08:31:28;;;;;;;5.20;3.00;;;;;;;13.28;56.79;99220.25;5053162;27;96792;-79
2021/05/07 08:33:54;;;;;;;8.15;3.30;;;;;;;13.12;57.42;99235.31;5051275;27;97314;-79
2021/05/07 08:36:19;;;;;;;5.30;3.30;;;;;;;12.87;58.12;99234.16;5057030;27;101358;-79
2021/05/07 08:38:45;;;;;;;9.48;3.25;;;;;;;12.66;58.47;99238.09;5040518;27;98154;-79
2021/05/07 08:41:10;;;;;;;8.60;4.20;;;;;;;12.59;58.18;99245.50;5073227;27;97383;-79
2021/05/07 08:43:36;;;;;;;7.60;3.47;;;;;;;12.88;57.72;99246.38;5053041;27;97319;-78
2021/05/07 08:46:05;;;;;;;10.98;3.63;;;;;;;13.09;57.31;99252.16;5079542;27;97879;-80
2021/05/07 08:48:32;;;;;;;7.05;3.45;;;;;;;13.01;57.69;99243.88;5036827;27;100436;-82
2021/05/07 08:50:58;;;;;;;6.47;3.17;;;;;;;12.81;57.40;99244.22;5043296;27;97186;-81
2021/05/07 08:53:26;;;;;;;9.00;3.75;;;;;;;12.83;57.21;99251.09;5061341;27;97256;-82
2021/05/07 08:55:52;;;;;;;5.50;3.65;;;;;;;12.90;57.58;99256.84;5032098;27;101357;-82
2021/05/07 08:58:18;;;;;;;7.10;3.08;;;;;;;12.92;57.40;99254.97;5036813;27;101689;-81
2021/05/07 09:00:44;;;;;;;12.10;4.00;;;;;;;12.96;57.08;99266.16;5039638;27;97412;-81
2021/05/07 09:03:13;;;;;;;8.07;3.75;;;;;;;13.03;57.67;99268.34;5030574;27;97623;-84
2021/05/07 09:05:39;;;;;;;8.45;3.70;;;;;;;13.08;58.06;99271.50;5044284;27;98189;-89
2021/05/07 09:08:06;;;;;;;11.57;3.47;;;;;;;13.08;57.10;99274.16;5064615;27;98335;-82
2021/05/07 09:10:38;;;;;;;13.25;3.75;;;;;;;13.11;56.88;99279.22;5048036;27;97582;-81
2021/05/07 09:13:05;;;;;;;5.32;3.13;;;;;;;13.01;57.45;99280.75;5050053;27;96922;-79
2021/05/07 09:15:42;;;;;;;10.85;3.40;;;;;;;12.97;56.71;99284.47;5049575;27;98074;-78
2021/05/07 09:18:08;;;;;;;9.27;3.35;;;;;;;12.81;57.12;99286.38;5038496;27;101573;-78
2021/05/07 09:20:48;;;;;;;6.65;3.10;;;;;;;12.70;56.97;99308.06;5050654;27;97116;-79
2021/05/07 09:23:16;;;;;;;4.30;2.92;;;;;;;12.61;56.93;99304.19;5023915;27;96965;-78
2021/05/07 09:25:45;;;;;;;14.60;4.00;;;;;;;12.67;56.85;99295.91;5041620;27;101026;-79
2021/05/07 09:28:13;;;;;;;8.07;3.90;;;;;;;12.79;57.23;99302.25;5048744;27;98088;-78
2021/05/07 09:30:40;;;;;;;4.70;3.50;;;;;;;12.92;56.00;99302.38;5047963;27;97586;-77
2021/05/07 09:33:08;;;;;;;4.18;2.97;;;;;;;12.97;55.60;99305.56;5010446;27;97294;-78
2021/05/07 09:35:36;;;;;;;5.95;2.75;;;;;;;13.21;55.52;99310.31;5025865;27;101386;-78
2021/05/07 09:38:08;;;;;;;5.68;3.25;;;;;;;13.29;55.63;99321.25;5045607;27;99956;-78
2021/05/07 09:40:36;;;;;;;8.30;3.58;;;;;;;13.32;55.42;99324.56;5033087;27;97620;-78
2021/05/07 09:43:10;;;;;;;10.20;3.40;;;;;;;13.18;54.79;99324.53;5029051;27;97803;-80
2021/05/07 09:45:38;;;;;;;4.90;2.88;;;;;;;13.17;54.28;99322.81;5065752;27;97559;-80
2021/05/07 09:48:24;;;;;;;6.05;2.78;;;;;;;13.52;53.98;99330.38;5052871;27;101079;-79
2021/05/07 09:51:02;;;;;;;5.65;2.70;;;;;;;14.02;54.06;99331.63;5052739;27;97278;-78
2021/05/07 09:53:32;;;;;;;5.57;2.70;;;;;;;14.06;52.83;99332.31;5050127;27;96943;-79
2021/05/07 09:56:03;;;;;;;7.43;2.72;;;;;;;14.22;52.00;99325.94;5060926;27;99181;-79
2021/05/07 09:58:29;;;;;;;3.70;2.00;;;;;;;14.42;51.05;99335.19;5054037;27;99941;-78
2021/05/07 10:00:56;;;;;;;5.90;2.13;;;;;;;14.66;51.56;99334.53;5045083;27;96811;-79
2021/05/07 10:03:22;;;;;;;6.22;2.33;;;;;;;14.66;52.21;99345.97;5041366;27;96926;-78
2021/05/07 10:05:48;;;;;;;7.05;2.58;;;;;;;14.62;52.64;99352.38;5052747;27;98119;-80
2021/05/07 10:08:14;;;;;;;4.95;2.63;;;;;;;14.68;53.03;99356.41;5048480;27;101961;-77
2021/05/07 10:10:43;;;;;;;6.55;2.03;;;;;;;14.47;51.90;99354.22;5064006;27;96875;-77
2021/05/07 10:13:11;;;;;;;6.50;2.58;;;;;;;14.51;53.19;99354.84;5034430;27;97591;-78
2021/05/07 10:15:38;;;;;;;5.78;2.35;;;;;;;14.58;51.03;99361.47;5025196;27;101430;-82
2021/05/07 10:18:09;;;;;;;5.22;2.33;;;;;;;14.85;51.45;99358.78;5036708;27;101796;-82
2021/05/07 10:20:39;;;;;;;5.90;3.25;;;;;;;14.84;51.14;99362.38;5032773;27;97266;-81
2021/05/07 10:23:19;;;;;;;7.00;3.20;;;;;;;14.43;51.84;99368.56;5033651;27;97230;-82
2021/05/07 10:26:04;;;;;;;12.48;4.25;;;;;;;14.26;52.51;99369.66;5032545;27;101653;-82
2021/05/07 10:28:45;;;;;;;4.95;3.10;;;;;;;14.33;52.02;99370.09;5046742;27;101423;-82
2021/05/07 10:31:14;;;;;;;7.40;2.95;;;;;;;14.56;52.22;99359.88;5034081;27;97620;-82
2021/05/07 10:33:43;;;;;;;6.93;2.95;;;;;;;14.81;51.38;99352.03;5028161;27;97555;-82
2021/05/07 10:36:09;;;;;;;14.13;4.50;;;;;;;14.92;52.40;99357.44;5042791;27;100713;-82
2021/05/07 10:38:34;;;;;;;8.82;3.55;;;;;;;14.95;52.92;99348.44;5061945;27;101146;-82
2021/05/07 10:41:08;;;;;;;12.68;5.22;;;;;;;14.91;53.27;99347.81;5028092;27;96834;-82
2021/05/07 10:43:46;;;;;;;6.32;3.10;;;;;;;14.87;51.96;99351.63;5045793;27;96828;-82
2021/05/07 10:46:25;;;;;;;5.13;3.35;;;;;;;14.89;52.08;99348.84;5033083;27;101389;-82
2021/05/07 10:48:56;;;;;;;11.55;3.58;;;;;;;15.05;53.75;99352.16;5057213;27;101341;-82
2021/05/07 10:51:23;;;;;;;10.27;3.25;;;;;;;15.06;52.67;99350.38;5041280;27;97161;-82
2021/05/07 10:53:49;;;;;;;6.05;3.67;;;;;;;15.04;52.26;99337.28;5036696;27;97137;-81
2021/05/07 10:56:18;;;;;;;7.70;4.03;;;;;;;14.91;51.70;99341.69;5043382;27;98353;-82
2021/05/07 10:58:44;;;;;;;8.48;4.60;;;;;;;14.87;52.77;99348.97;5059868;27;101337;-82
2021/05/07 11:01:18;;;;;;;12.05;5.18;;;;;;;15.06;52.23;99342.44;5041539;27;96751;-82
2021/05/07 11:03:45;;;;;;;7.20;3.90;;;;;;;15.10;52.17;99365.09;5066941;27;96902;-80
2021/05/07 11:06:11;;;;;;;5.93;3.45;;;;;;;15.32;51.24;99349.41;5027212;27;101195;-80
2021/05/07 11:08:36;;;;;;;4.88;3.45;;;;;;;15.22;51.06;99342.25;5058020;27;98322;-81
2021/05/07 11:11:02;;;;;;;5.63;3.15;;;;;;;14.90;51.95;99354.06;5055230;27;97823;-81
2021/05/07 11:13:28;;;;;;;13.13;4.00;;;;;;;15.05;51.64;99348.69;5037194;27;96889;-81
2021/05/07 11:16:00;;;;;;;7.88;3.60;;;;;;;14.90;49.66;99347.94;5036684;27;101622;-80
2021/05/07 11:18:32;;;;;;;4.38;2.55;;;;;;;14.65;51.17;99354.81;5020644;27;101418;-81
2021/05/07 11:21:10;;;;;;;2.97;2.47;;;;;;;14.50;50.65;99343.44;5019902;27;96824;-80
2021/05/07 11:23:36;;;;;;;4.43;2.67;;;;;;;14.53;51.56;99349.53;5020080;27;97505;-80
2021/05/07 11:26:05;;;;;;;3.88;2.70;;;;;;;14.75;51.66;99351.56;5054559;27;98398;-80
2021/05/07 11:28:39;;;;;;;10.75;3.08;;;;;;;14.70;52.47;99347.44;5048637;27;101424;-80
2021/05/07 11:31:05;;;;;;;7.03;2.83;;;;;;;14.65;51.31;99346.06;5053721;27;97653;-79
2021/05/07 11:33:31;;;;;;;8.98;3.30;;;;;;;14.71;51.62;99356.22;5068289;27;97331;-80
2021/05/07 11:36:08;;;;;;;5.40;2.72;;;;;;;14.80;52.32;99345.03;5045895;27;101766;-80